Westport, Washington
Current Conditions -  °F | °C
As of 7:53 PM on Wednesday 26 Nov 2014 (Local Time) from KHQM Reporting Station
Overcast Overcast  
Wind Chill: 56°   Ceiling: 2000
Heat Index: 56°   Visibility: 8mi
Dew Point: 52°   Wind: 24mph
Humidity: 87%   Direction: 170°S
Pressure: 29.92"   Gusts: 31mph
Location:  46.89°N, 124.1°W
Report Text: KHQM 270353Z AUTO 17021G27KT 8SM OVC020 13/11 A2992 RMK AO2 PK WND 17027/0350 RAE49 SLP133 P0000 T01330111
Loading
Personal Weather Stations






























Interactive Weather Map New forecast layout! Learn more

10-Day Weather Forecast

Advertisements
Track Severe Weather on mobile